Time;durP1;ratioP1;P1;durP2;ratioP2;P2;SDS_P1;SDS_P2;PMS_P1;PMS_P2;Temp;Humidity;BMP_temperature;BMP_pressure;BME280_temperature;BME280_humidity;BME280_pressure;Samples;Min_cycle;Max_cycle;Signal;HPM_P1;HPM_P2
2024/02/13 00:00:40;;;;;;;6.93;0.40;;;4.20;99.90;;;;;;4997902;28;20023;-75
2024/02/13 00:03:05;;;;;;;8.55;0.82;;;4.10;99.90;;;;;;4997546;28;20404;-75
2024/02/13 00:05:33;;;;;;;4.90;0.90;;;4.20;99.90;;;;;;4999202;28;20031;-75
2024/02/13 00:08:00;;;;;;;6.13;0.80;;;4.20;99.90;;;;;;4998568;28;20015;-75
2024/02/13 00:10:28;;;;;;;5.82;0.90;;;4.20;99.90;;;;;;4998471;28;20037;-75
2024/02/13 00:12:54;;;;;;;4.05;0.75;;;4.20;99.90;;;;;;4997818;28;20046;-75
2024/02/13 00:15:20;;;;;;;3.40;1.05;;;4.10;99.90;;;;;;4998602;28;20065;-77
2024/02/13 00:17:50;;;;;;;7.28;1.00;;;4.10;99.90;;;;;;4997123;28;20019;-75
2024/02/13 00:20:17;;;;;;;4.07;0.70;;;4.20;99.90;;;;;;4996389;28;20406;-75
2024/02/13 00:22:49;;;;;;;3.33;1.15;;;4.10;99.90;;;;;;4995959;28;20014;-75
2024/02/13 00:25:17;;;;;;;9.00;0.95;;;4.20;99.90;;;;;;4996116;28;20018;-75
2024/02/13 00:27:43;;;;;;;4.28;0.80;;;4.20;99.90;;;;;;4996691;28;20019;-75
2024/02/13 00:30:09;;;;;;;5.70;1.17;;;4.10;99.90;;;;;;4995972;28;20117;-75
2024/02/13 00:32:38;;;;;;;11.80;1.27;;;4.10;99.90;;;;;;4996537;28;20422;-75
2024/02/13 00:35:08;;;;;;;5.82;1.52;;;4.10;99.90;;;;;;4995157;28;20026;-76
2024/02/13 00:37:37;;;;;;;10.63;2.58;;;4.10;99.90;;;;;;4995472;28;20019;-76
2024/02/13 00:40:05;;;;;;;7.13;1.67;;;4.10;99.90;;;;;;4996592;28;20521;-75
2024/02/13 00:42:32;;;;;;;6.90;2.22;;;4.10;99.90;;;;;;4996513;28;20478;-75
2024/02/13 00:45:00;;;;;;;7.03;2.22;;;4.10;99.90;;;;;;4996057;28;20476;-75
2024/02/13 00:47:28;;;;;;;7.53;2.07;;;4.10;99.90;;;;;;4997045;28;20030;-75
2024/02/13 00:49:54;;;;;;;7.47;2.50;;;5.00;99.90;;;;;;4994720;28;20277;-75
2024/02/13 00:52:20;;;;;;;7.90;2.70;;;4.20;99.90;;;;;;4997549;28;20022;-75
2024/02/13 00:54:46;;;;;;;7.30;3.40;;;4.20;99.90;;;;;;4996831;28;20077;-75
2024/02/13 00:57:12;;;;;;;10.82;3.17;;;4.20;99.90;;;;;;4996447;28;20057;-75
2024/02/13 00:59:40;;;;;;;9.70;3.45;;;4.10;99.90;;;;;;4996303;28;20023;-75
2024/02/13 01:02:05;;;;;;;8.68;4.32;;;4.20;99.90;;;;;;4996280;28;20105;-75
2024/02/13 01:04:31;;;;;;;8.90;4.28;;;5.70;99.90;;;;;;4997969;28;20073;-76
2024/02/13 01:07:01;;;;;;;12.65;4.80;;;4.20;99.90;;;;;;4997430;28;20033;-76
2024/02/13 01:09:27;;;;;;;8.00;3.80;;;4.30;99.90;;;;;;4997015;28;20026;-76
2024/02/13 01:11:52;;;;;;;10.00;4.47;;;4.30;99.90;;;;;;4997075;28;20497;-76
2024/02/13 01:14:18;;;;;;;12.73;4.72;;;5.80;99.90;;;;;;4996860;28;20022;-76
2024/02/13 01:16:44;;;;;;;10.75;4.32;;;4.40;99.90;;;;;;4997333;28;20030;-76
2024/02/13 01:19:10;;;;;;;9.68;4.95;;;4.30;99.90;;;;;;4996033;28;20598;-76
2024/02/13 01:21:36;;;;;;;10.65;4.72;;;4.30;99.90;;;;;;4995624;28;20505;-76
2024/02/13 01:24:02;;;;;;;9.43;4.13;;;4.40;99.90;;;;;;4997199;28;20034;-76
2024/02/13 01:26:29;;;;;;;17.95;5.25;;;4.40;99.90;;;;;;4997189;28;20030;-76
2024/02/13 01:28:54;;;;;;;15.60;5.60;;;4.40;99.90;;;;;;4997747;28;20040;-76
2024/02/13 01:31:20;;;;;;;9.90;4.60;;;4.40;99.90;;;;;;4996626;28;20121;-75
2024/02/13 01:33:46;;;;;;;14.07;5.15;;;4.90;99.90;;;;;;4997629;28;20022;-76
2024/02/13 01:36:11;;;;;;;16.45;4.57;;;4.50;99.90;;;;;;4996447;28;20486;-76
2024/02/13 01:38:37;;;;;;;15.82;4.88;;;4.50;99.90;;;;;;4999093;28;20022;-75
2024/02/13 01:41:04;;;;;;;15.57;5.22;;;4.50;99.90;;;;;;4997886;28;20023;-76
2024/02/13 01:43:31;;;;;;;17.05;6.03;;;4.50;99.90;;;;;;4998182;28;20465;-76
2024/02/13 01:45:58;;;;;;;12.85;4.68;;;4.50;99.90;;;;;;4995945;28;20053;-76
2024/02/13 01:48:25;;;;;;;13.93;4.80;;;4.50;99.90;;;;;;4996592;28;20472;-76
2024/02/13 01:50:52;;;;;;;9.90;4.40;;;4.50;99.90;;;;;;4997704;28;20014;-76
2024/02/13 01:53:21;;;;;;;10.52;4.93;;;5.00;99.90;;;;;;4996287;28;20030;-76
2024/02/13 01:55:48;;;;;;;;;;;4.40;99.90;;;;;;4996465;28;20025;-76
2024/02/13 01:58:15;;;;;;;13.95;4.80;;;4.40;99.90;;;;;;4995391;28;20388;-77
2024/02/13 02:00:42;;;;;;;15.63;4.80;;;4.40;99.90;;;;;;4995189;28;20454;-77
2024/02/13 02:03:13;;;;;;;9.80;3.78;;;4.40;99.90;;;;;;4996338;28;20470;-77
2024/02/13 02:05:39;;;;;;;13.80;5.13;;;4.40;99.90;;;;;;4995238;28;20160;-74
2024/02/13 02:08:07;;;;;;;10.45;5.28;;;4.40;99.90;;;;;;4997718;28;20050;-75
2024/02/13 02:10:32;;;;;;;11.65;4.60;;;4.40;99.90;;;;;;4997357;28;20026;-75
2024/02/13 02:12:58;;;;;;;9.77;4.90;;;4.40;99.90;;;;;;4995977;28;20034;-75
2024/02/13 02:15:24;;;;;;;16.30;5.10;;;4.40;99.90;;;;;;4996493;28;20090;-75
2024/02/13 02:17:51;;;;;;;15.48;4.88;;;4.40;99.90;;;;;;4996663;28;20014;-75
2024/02/13 02:20:22;;;;;;;13.60;4.85;;;4.40;99.90;;;;;;4997614;28;20101;-75
2024/02/13 02:22:49;;;;;;;18.58;5.65;;;4.40;99.90;;;;;;4997137;28;20053;-76
2024/02/13 02:25:19;;;;;;;12.55;5.22;;;6.10;99.90;;;;;;4996474;28;20027;-75
2024/02/13 02:27:45;;;;;;;10.73;5.88;;;4.40;99.90;;;;;;4995493;28;20559;-75
2024/02/13 02:30:11;;;;;;;11.98;5.47;;;4.40;99.90;;;;;;4995237;28;20027;-75
2024/02/13 02:32:37;;;;;;;9.30;5.10;;;4.40;99.90;;;;;;4995643;28;20026;-75
2024/02/13 02:35:03;;;;;;;13.43;5.32;;;5.00;99.90;;;;;;4995471;28;20031;-75
2024/02/13 02:37:28;;;;;;;9.98;5.32;;;4.30;99.90;;;;;;4996961;28;20025;-75
2024/02/13 02:39:54;;;;;;;9.80;4.93;;;4.30;99.90;;;;;;4995358;28;20478;-75
2024/02/13 02:42:21;;;;;;;12.50;5.80;;;4.30;99.90;;;;;;4997292;28;20026;-75
2024/02/13 02:44:47;;;;;;;13.70;5.47;;;4.30;99.90;;;;;;4996216;28;20026;-75
2024/02/13 02:47:12;;;;;;;17.25;5.78;;;4.30;99.90;;;;;;4997302;28;20030;-75
2024/02/13 02:49:39;;;;;;;16.15;5.47;;;4.30;99.90;;;;;;4998132;28;20023;-75
2024/02/13 02:52:08;;;;;;;9.65;5.18;;;4.30;99.90;;;;;;4998216;28;20022;-75
2024/02/13 02:54:36;;;;;;;9.73;5.40;;;4.30;99.90;;;;;;4996811;28;20027;-75
2024/02/13 02:57:06;;;;;;;10.23;4.82;;;4.20;99.90;;;;;;4996769;28;20022;-75
2024/02/13 02:59:32;;;;;;;13.23;5.85;;;4.30;99.90;;;;;;4997575;28;20030;-75
2024/02/13 03:01:58;;;;;;;17.25;5.70;;;4.20;99.90;;;;;;4996465;28;20018;-74
2024/02/13 03:04:25;;;;;;;12.15;5.95;;;4.20;99.90;;;;;;4995432;28;20019;-75
2024/02/13 03:06:51;;;;;;;14.45;5.20;;;4.20;99.90;;;;;;4995744;28;20026;-74
2024/02/13 03:09:16;;;;;;;12.43;6.10;;;4.20;99.90;;;;;;4996829;28;20023;-75
2024/02/13 03:11:42;;;;;;;14.63;6.32;;;4.10;99.90;;;;;;4997320;28;20041;-75
2024/02/13 03:14:11;;;;;;;21.05;5.95;;;4.10;99.90;;;;;;4998992;28;20026;-75
2024/02/13 03:16:36;;;;;;;;;;;4.20;99.90;;;;;;5001648;28;20105;-74
2024/02/13 03:19:05;;;;;;;11.18;5.38;;;4.40;99.90;;;;;;5000943;28;19956;-75
2024/02/13 03:21:37;;;;;;;;;;;4.10;99.90;;;;;;5001847;28;20030;-75
2024/02/13 03:24:03;;;;;;;9.50;5.28;;;4.10;99.90;;;;;;5063077;23;19921;-75
2024/02/13 03:26:29;;;;;;;10.05;5.65;;;4.20;99.90;;;;;;5059946;28;20028;-75
2024/02/13 03:28:55;;;;;;;14.52;5.05;;;4.20;99.90;;;;;;5059209;28;20021;-75
2024/02/13 03:31:20;;;;;;;14.48;5.30;;;4.10;99.90;;;;;;5057890;28;20021;-75
2024/02/13 03:33:46;;;;;;;13.98;5.13;;;4.70;99.90;;;;;;5057820;28;20032;-75
2024/02/13 03:36:16;;;;;;;14.02;6.20;;;4.10;99.90;;;;;;5060206;28;20017;-75
2024/02/13 03:38:48;;;;;;;16.40;5.53;;;4.10;99.90;;;;;;5058787;28;20021;-75
2024/02/13 03:41:14;;;;;;;15.05;5.65;;;;;;;;;;5060173;28;20040;-75
2024/02/13 03:43:44;;;;;;;11.13;4.78;;;4.20;99.90;;;;;;5059622;28;20484;-75
2024/02/13 03:46:10;;;;;;;13.18;5.60;;;4.20;99.90;;;;;;5059778;28;20021;-75
2024/02/13 03:48:36;;;;;;;15.82;5.57;;;4.20;99.90;;;;;;5058383;28;20029;-75
2024/02/13 03:51:03;;;;;;;8.57;4.40;;;4.20;99.90;;;;;;5058512;28;20024;-75
2024/02/13 03:53:29;;;;;;;10.35;4.88;;;4.20;99.90;;;;;;5060020;28;20476;-75
2024/02/13 03:55:55;;;;;;;13.15;5.25;;;5.70;99.90;;;;;;5058350;28;20078;-75
2024/02/13 03:58:21;;;;;;;13.20;4.05;;;4.20;99.90;;;;;;5059457;28;20029;-76
2024/02/13 04:00:46;;;;;;;11.35;5.47;;;4.30;99.90;;;;;;5060507;28;20077;-76
2024/02/13 04:03:12;;;;;;;10.82;4.88;;;4.30;99.90;;;;;;5058661;28;20013;-75
2024/02/13 04:05:39;;;;;;;13.20;4.68;;;4.30;99.90;;;;;;5059048;28;20025;-76
2024/02/13 04:08:07;;;;;;;7.03;4.03;;;4.30;99.90;;;;;;5058162;28;20049;-75
2024/02/13 04:10:34;;;;;;;10.20;4.63;;;4.20;99.90;;;;;;5059634;28;20097;-75
2024/02/13 04:13:00;;;;;;;7.40;4.32;;;4.20;99.90;;;;;;5057755;28;20032;-76
2024/02/13 04:15:26;;;;;;;15.68;5.18;;;4.20;99.90;;;;;;5059712;28;20367;-75
2024/02/13 04:17:51;;;;;;;10.63;4.63;;;4.20;99.90;;;;;;5057875;28;20017;-75
2024/02/13 04:20:17;;;;;;;11.20;4.30;;;4.20;99.90;;;;;;5059314;28;20475;-75
2024/02/13 04:22:43;;;;;;;8.75;4.35;;;5.20;99.90;;;;;;5056975;28;20056;-75
2024/02/13 04:25:10;;;;;;;10.63;4.38;;;4.20;99.90;;;;;;5056591;28;20071;-75
2024/02/13 04:27:37;;;;;;;10.45;4.47;;;4.10;99.90;;;;;;5058345;28;20083;-76
2024/02/13 04:30:04;;;;;;;9.20;4.78;;;4.10;99.90;;;;;;5058317;28;20029;-77
2024/02/13 04:32:30;;;;;;;12.13;4.80;;;4.20;99.90;;;;;;5059747;28;20021;-76
2024/02/13 04:34:56;;;;;;;15.20;4.63;;;4.20;99.90;;;;;;5058171;28;20112;-76
2024/02/13 04:37:25;;;;;;;14.48;5.28;;;;;;;;;;5060034;28;20345;-76
2024/02/13 04:39:50;;;;;;;;;;;4.20;99.90;;;;;;5060972;28;20078;-76
2024/02/13 04:42:29;;;;;;;10.35;5.03;;;4.10;99.90;;;;;;5059943;28;19940;-76
2024/02/13 04:44:55;;;;;;;9.73;4.20;;;4.10;99.90;;;;;;5058729;28;20036;-76
2024/02/13 04:47:21;;;;;;;10.88;4.63;;;4.10;99.90;;;;;;5058273;28;20029;-76
2024/02/13 04:49:46;;;;;;;14.98;4.97;;;4.10;99.90;;;;;;5057248;28;20100;-76
2024/02/13 04:52:13;;;;;;;13.13;5.32;;;4.10;99.90;;;;;;5057848;28;20078;-76
2024/02/13 04:54:39;;;;;;;11.55;4.65;;;4.10;99.90;;;;;;5058608;28;20104;-76
2024/02/13 04:57:05;;;;;;;14.40;4.85;;;4.00;99.90;;;;;;5057565;28;20048;-76
2024/02/13 04:59:37;;;;;;;15.48;5.10;;;4.10;99.90;;;;;;5058595;28;20018;-76
2024/02/13 05:02:05;;;;;;;12.75;4.90;;;4.00;99.90;;;;;;5058685;28;20044;-76
2024/02/13 05:09:41;;;;;;;13.57;4.97;;;4.00;99.90;;;;;;5059903;28;20040;-76
2024/02/13 05:12:07;;;;;;;16.73;6.05;;;4.10;99.90;;;;;;5058878;28;20020;-76
2024/02/13 05:14:33;;;;;;;9.38;4.95;;;4.00;99.90;;;;;;5057905;28;20052;-76
2024/02/13 05:17:02;;;;;;;9.90;4.93;;;4.00;99.90;;;;;;5058434;28;20013;-76
2024/02/13 05:19:28;;;;;;;13.98;4.72;;;4.00;99.90;;;;;;5058329;28;20021;-76
2024/02/13 05:21:54;;;;;;;14.38;4.95;;;4.00;99.90;;;;;;5056753;28;20028;-76
2024/02/13 05:24:19;;;;;;;10.35;4.53;;;4.00;99.90;;;;;;5056106;28;20449;-76
2024/02/13 05:26:45;;;;;;;12.38;5.15;;;4.10;99.90;;;;;;5057199;28;20024;-76
2024/02/13 05:29:11;;;;;;;10.32;5.38;;;5.50;99.90;;;;;;5058154;28;20021;-75
2024/02/13 05:31:36;;;;;;;12.30;5.63;;;4.10;99.90;;;;;;5057488;28;20114;-76
2024/02/13 05:34:03;;;;;;;10.00;4.70;;;4.10;99.90;;;;;;5055719;28;20032;-76
2024/02/13 05:36:29;;;;;;;15.93;4.85;;;4.10;99.90;;;;;;5056654;28;20017;-76
2024/02/13 05:38:55;;;;;;;18.10;5.45;;;4.00;99.90;;;;;;5057775;28;20032;-76
2024/02/13 05:41:21;;;;;;;14.70;5.25;;;4.00;99.90;;;;;;5055883;28;20391;-76
2024/02/13 05:43:47;;;;;;;12.98;4.65;;;4.10;99.90;;;;;;5056769;28;20024;-76
2024/02/13 05:46:13;;;;;;;17.58;5.35;;;4.20;99.90;;;;;;5055548;28;20031;-76
2024/02/13 05:48:42;;;;;;;12.15;5.10;;;4.10;99.90;;;;;;5058072;28;20029;-76
2024/02/13 05:51:11;;;;;;;;;;;4.10;99.90;;;;;;5057430;28;20399;-76
2024/02/13 05:53:37;;;;;;;14.05;4.82;;;4.10;99.90;;;;;;5057783;28;19913;-76
2024/02/13 05:56:03;;;;;;;13.63;4.07;;;4.10;99.90;;;;;;5057356;28;20025;-76
2024/02/13 05:58:29;;;;;;;9.10;4.30;;;4.10;99.90;;;;;;5058594;28;20024;-76
2024/02/13 06:00:56;;;;;;;16.17;5.15;;;4.10;99.90;;;;;;5059477;28;20021;-76
2024/02/13 06:03:22;;;;;;;16.67;5.13;;;4.10;99.90;;;;;;5056052;28;20044;-75
2024/02/13 06:05:49;;;;;;;13.07;4.55;;;4.10;99.90;;;;;;5059007;28;20021;-78
2024/02/13 06:08:14;;;;;;;15.30;4.70;;;4.10;99.90;;;;;;5058106;28;20024;-76
2024/02/13 06:10:40;;;;;;;9.63;4.60;;;4.20;99.90;;;;;;5058521;28;20024;-76
2024/02/13 06:13:06;;;;;;;14.93;5.05;;;4.20;99.90;;;;;;5057504;28;20025;-78
2024/02/13 06:15:33;;;;;;;10.52;4.47;;;4.20;99.90;;;;;;5056542;28;20025;-78
2024/02/13 06:17:58;;;;;;;13.48;4.38;;;4.20;99.90;;;;;;5057449;28;20468;-78
2024/02/13 06:20:24;;;;;;;14.50;4.35;;;4.20;99.90;;;;;;5057405;28;20024;-78
2024/02/13 06:22:49;;;;;;;18.00;3.88;;;4.20;99.90;;;;;;5058733;28;20067;-78
2024/02/13 06:25:15;;;;;;;9.68;4.45;;;4.20;99.90;;;;;;5057773;28;20491;-75
2024/02/13 06:27:40;;;;;;;7.95;4.13;;;4.20;99.90;;;;;;5058523;28;20029;-75
2024/02/13 06:30:07;;;;;;;14.60;3.70;;;4.30;99.90;;;;;;5058300;28;20434;-75
2024/02/13 06:32:33;;;;;;;17.77;3.97;;;4.30;99.90;;;;;;5057112;28;20029;-75
2024/02/13 06:34:59;;;;;;;12.15;4.35;;;4.30;99.90;;;;;;5057533;28;20498;-75
2024/02/13 06:37:24;;;;;;;14.00;3.92;;;4.30;99.90;;;;;;5057620;28;20021;-75
2024/02/13 06:39:50;;;;;;;12.02;3.88;;;4.30;99.90;;;;;;5058793;28;20021;-75
2024/02/13 06:42:16;;;;;;;12.23;3.97;;;4.20;99.90;;;;;;5057939;28;20021;-75
2024/02/13 06:44:43;;;;;;;8.32;3.75;;;4.20;99.90;;;;;;5058320;28;20099;-75
2024/02/13 06:47:10;;;;;;;10.98;3.72;;;4.20;99.90;;;;;;5059281;28;20089;-75
2024/02/13 06:49:36;;;;;;;10.73;3.75;;;4.20;99.90;;;;;;5061459;28;20079;-76
2024/02/13 06:52:06;;;;;;;15.85;4.75;;;4.20;99.90;;;;;;5060647;28;20104;-75
2024/02/13 06:54:31;;;;;;;16.00;4.93;;;4.20;99.90;;;;;;5060550;28;20017;-75
2024/02/13 06:56:58;;;;;;;11.38;4.50;;;4.20;99.90;;;;;;5062020;28;20027;-76
2024/02/13 06:59:24;;;;;;;11.23;3.85;;;4.90;99.90;;;;;;5062196;28;20021;-76
2024/02/13 07:01:50;;;;;;;17.15;3.88;;;4.20;99.90;;;;;;5059121;28;20100;-75
2024/02/13 07:04:15;;;;;;;10.23;4.20;;;4.10;99.90;;;;;;5058746;28;20376;-76
2024/02/13 07:06:41;;;;;;;9.45;3.63;;;4.00;99.90;;;;;;5059237;28;20044;-76
2024/02/13 07:09:09;;;;;;;14.00;4.80;;;4.00;99.90;;;;;;5060631;28;20029;-76
2024/02/13 07:11:34;;;;;;;14.32;4.18;;;3.90;99.90;;;;;;5058612;28;20438;-75
2024/02/13 07:14:01;;;;;;;14.30;4.53;;;3.90;99.90;;;;;;5060176;28;20060;-75
2024/02/13 07:16:26;;;;;;;12.15;4.45;;;3.90;99.90;;;;;;5059290;28;20028;-76
2024/02/13 07:18:52;;;;;;;12.55;4.43;;;4.00;99.90;;;;;;5061068;28;20096;-75
2024/02/13 07:21:19;;;;;;;13.55;4.38;;;4.00;99.90;;;;;;5057696;28;20021;-76
2024/02/13 07:23:45;;;;;;;7.15;3.95;;;3.90;99.90;;;;;;5056191;28;20060;-75
2024/02/13 07:26:14;;;;;;;13.77;4.75;;;4.00;99.90;;;;;;5057044;28;20541;-76
2024/02/13 07:28:40;;;;;;;;;;;4.00;99.90;;;;;;5057546;28;20430;-76
2024/02/13 07:31:07;;;;;;;10.07;3.50;;;4.00;99.90;;;;;;5058887;28;19904;-76
2024/02/13 07:33:33;;;;;;;13.75;3.47;;;4.00;99.90;;;;;;5058877;28;20112;-76
2024/02/13 07:36:00;;;;;;;13.77;4.22;;;4.00;99.90;;;;;;5058789;28;20052;-76
2024/02/13 07:38:26;;;;;;;11.82;3.67;;;4.10;99.90;;;;;;5056768;28;20020;-75
2024/02/13 07:40:51;;;;;;;12.10;4.35;;;4.10;99.90;;;;;;5060042;28;20379;-76
2024/02/13 07:43:17;;;;;;;10.43;4.65;;;4.10;99.90;;;;;;5059937;28;20028;-75
2024/02/13 07:45:43;;;;;;;11.38;3.95;;;4.20;99.90;;;;;;5059244;28;20096;-75
2024/02/13 07:48:11;;;;;;;9.05;3.45;;;4.20;99.90;;;;;;5057156;28;20018;-76
2024/02/13 07:50:38;;;;;;;14.20;4.00;;;4.20;99.90;;;;;;5058548;28;20025;-76
2024/02/13 07:53:06;;;;;;;12.40;3.47;;;4.20;99.90;;;;;;5057067;28;20032;-76
2024/02/13 07:55:35;;;;;;;8.80;3.60;;;4.30;99.90;;;;;;5059322;28;20079;-75
2024/02/13 07:58:01;;;;;;;9.35;2.88;;;4.30;99.90;;;;;;5057126;28;20021;-76
2024/02/13 08:00:29;;;;;;;8.57;3.20;;;4.50;99.90;;;;;;5058655;28;20024;-76
2024/02/13 08:02:54;;;;;;;8.25;2.67;;;4.50;99.90;;;;;;5058646;28;20116;-75
2024/02/13 08:05:20;;;;;;;13.10;3.97;;;4.60;99.90;;;;;;5058778;28;20508;-75
2024/02/13 08:07:46;;;;;;;13.00;2.70;;;4.70;99.90;;;;;;5059381;28;20028;-75
2024/02/13 08:10:11;;;;;;;9.02;2.72;;;4.90;99.90;;;;;;5058294;28;20032;-76
2024/02/13 08:12:37;;;;;;;5.63;2.70;;;4.70;99.90;;;;;;5056957;28;20032;-76
2024/02/13 08:15:03;;;;;;;8.70;2.05;;;4.70;99.90;;;;;;5057661;28;20018;-76
2024/02/13 08:17:29;;;;;;;11.43;2.17;;;4.80;99.90;;;;;;5058399;28;20082;-75
2024/02/13 08:19:56;;;;;;;9.52;1.90;;;4.80;99.90;;;;;;5057240;28;20527;-75
2024/02/13 08:22:22;;;;;;;12.20;3.03;;;4.90;99.90;;;;;;5057459;28;20029;-77
2024/02/13 08:24:48;;;;;;;4.55;1.75;;;5.00;99.90;;;;;;5056712;28;20032;-76
2024/02/13 08:27:18;;;;;;;5.47;1.58;;;5.00;99.90;;;;;;5058538;28;20083;-76
2024/02/13 08:29:46;;;;;;;9.02;2.10;;;6.30;99.90;;;;;;5056731;28;20403;-76
2024/02/13 08:32:12;;;;;;;7.95;2.08;;;5.00;99.90;;;;;;5056249;28;20074;-76
2024/02/13 08:34:38;;;;;;;8.43;2.65;;;4.90;99.90;;;;;;5057124;28;20025;-76
2024/02/13 08:37:04;;;;;;;8.45;1.90;;;4.90;99.90;;;;;;5058200;28;20021;-76
2024/02/13 08:39:30;;;;;;;10.43;2.42;;;5.00;99.90;;;;;;5057154;28;20361;-76
2024/02/13 08:41:58;;;;;;;6.18;1.85;;;5.00;99.90;;;;;;5059161;28;20055;-76
2024/02/13 08:44:24;;;;;;;3.22;1.75;;;5.00;99.90;;;;;;5057801;28;20024;-76
2024/02/13 08:46:49;;;;;;;9.63;2.72;;;5.00;99.90;;;;;;5057255;28;20025;-76
2024/02/13 08:49:15;;;;;;;6.07;1.25;;;5.10;99.90;;;;;;5059794;28;20021;-76
2024/02/13 08:51:41;;;;;;;9.70;2.55;;;5.20;99.90;;;;;;5058976;28;20455;-76
2024/02/13 08:54:11;;;;;;;5.88;1.60;;;5.20;99.90;;;;;;5057680;28;20021;-75
2024/02/13 08:56:38;;;;;;;4.75;1.50;;;5.40;99.90;;;;;;5057475;28;20032;-76
2024/02/13 08:59:04;;;;;;;6.50;1.50;;;5.50;99.90;;;;;;5057563;28;20407;-76
2024/02/13 09:01:30;;;;;;;8.88;1.27;;;5.50;99.90;;;;;;5057163;28;20021;-76
2024/02/13 09:03:55;;;;;;;8.93;1.35;;;5.60;99.90;;;;;;5058964;28;20479;-76
2024/02/13 09:06:21;;;;;;;10.70;1.95;;;5.70;99.90;;;;;;5056875;28;20036;-76
2024/02/13 09:08:47;;;;;;;5.57;1.40;;;6.20;99.90;;;;;;5058974;28;20102;-76
2024/02/13 09:11:12;;;;;;;5.25;1.35;;;5.90;99.90;;;;;;5056929;28;20017;-76
2024/02/13 09:13:39;;;;;;;8.85;1.50;;;6.00;99.90;;;;;;5057432;28;20029;-75
2024/02/13 09:16:09;;;;;;;3.50;1.13;;;6.00;99.90;;;;;;5058320;28;20032;-76
2024/02/13 09:18:35;;;;;;;6.60;1.00;;;6.00;99.90;;;;;;5057278;28;20029;-76
2024/02/13 09:21:01;;;;;;;9.95;1.60;;;6.00;99.90;;;;;;5058002;28;20015;-76
2024/02/13 09:23:30;;;;;;;5.25;1.60;;;6.00;99.90;;;;;;5055966;28;20037;-76
2024/02/13 09:25:56;;;;;;;6.40;1.35;;;6.00;99.90;;;;;;5055712;28;20501;-75
2024/02/13 09:28:25;;;;;;;4.18;0.90;;;6.00;99.90;;;;;;5056149;28;20390;-77
2024/02/13 09:30:51;;;;;;;4.43;0.93;;;6.00;99.90;;;;;;5053066;28;20036;-77
2024/02/13 09:33:21;;;;;;;5.30;1.30;;;6.00;99.90;;;;;;5054943;28;20017;-76
2024/02/13 09:35:50;;;;;;;5.47;1.20;;;5.90;99.90;;;;;;5053869;28;20021;-77
2024/02/13 09:38:19;;;;;;;5.13;1.33;;;6.00;99.90;;;;;;5054959;28;20041;-76
2024/02/13 09:40:48;;;;;;;5.97;1.55;;;;;;;;;;5054082;28;20013;-76
2024/02/13 09:43:14;;;;;;;8.82;1.30;;;6.00;99.90;;;;;;5055832;28;20490;-77
2024/02/13 09:45:41;;;;;;;5.80;2.20;;;6.00;99.90;;;;;;5054930;28;20021;-77
2024/02/13 09:48:20;;;;;;;6.72;1.20;;;6.00;99.90;;;;;;5055226;28;20029;-77
2024/02/13 09:50:49;;;;;;;5.22;1.00;;;6.10;99.90;;;;;;5053680;28;20041;-77
2024/02/13 09:53:25;;;;;;;3.70;0.98;;;6.20;99.90;;;;;;5054690;28;20029;-77
2024/02/13 09:55:55;;;;;;;6.50;0.88;;;6.40;99.90;;;;;;5053718;28;20013;-77
2024/02/13 09:58:21;;;;;;;6.63;1.15;;;6.30;99.90;;;;;;5054546;28;20025;-78
2024/02/13 10:00:48;;;;;;;2.78;0.77;;;6.40;99.90;;;;;;5054576;28;20021;-77
2024/02/13 10:03:14;;;;;;;4.18;0.82;;;6.40;99.90;;;;;;5054955;28;20025;-77
2024/02/13 10:05:39;;;;;;;5.25;1.67;;;6.50;99.90;;;;;;5054045;28;20021;-77
2024/02/13 10:08:07;;;;;;;4.97;0.98;;;6.50;99.90;;;;;;5053390;28;20569;-77
2024/02/13 10:10:33;;;;;;;6.32;1.00;;;6.90;99.90;;;;;;5055011;28;20025;-77
2024/02/13 10:13:00;;;;;;;6.50;1.65;;;6.70;99.90;;;;;;5053929;28;20028;-77
2024/02/13 10:15:45;;;;;;;7.32;1.05;;;6.80;99.90;;;;;;5055056;28;20104;-78
2024/02/13 10:18:13;;;;;;;3.97;0.73;;;6.90;99.90;;;;;;5053222;28;20025;-78
2024/02/13 10:20:39;;;;;;;3.85;1.30;;;7.00;99.90;;;;;;5052847;28;20494;-77
2024/02/13 10:23:06;;;;;;;5.15;0.82;;;7.10;99.90;;;;;;5056414;28;20088;-76
2024/02/13 10:25:33;;;;;;;10.73;1.50;;;7.10;99.90;;;;;;5058446;28;20028;-76
2024/02/13 10:28:02;;;;;;;3.17;0.70;;;7.20;99.90;;;;;;5058314;28;20029;-76
2024/02/13 10:30:29;;;;;;;6.75;0.82;;;7.40;99.90;;;;;;5060274;28;20496;-78
2024/02/13 10:33:06;;;;;;;5.45;1.50;;;8.60;99.90;;;;;;5061051;28;20048;-79
2024/02/13 10:35:32;;;;;;;5.43;0.60;;;7.40;99.90;;;;;;5060892;28;20464;-78
2024/02/13 10:37:58;;;;;;;3.22;0.98;;;7.50;99.90;;;;;;5060160;28;20013;-79
2024/02/13 10:40:28;;;;;;;4.57;0.55;;;8.50;99.90;;;;;;5060855;28;20021;-79
2024/02/13 10:42:56;;;;;;;5.00;0.50;;;7.70;99.90;;;;;;5061463;28;20433;-78
2024/02/13 10:45:32;;;;;;;4.97;0.68;;;7.90;99.90;;;;;;5059608;28;20029;-79
2024/02/13 10:48:23;;;;;;;4.15;1.05;;;8.00;99.90;;;;;;5060250;28;20048;-79
2024/02/13 10:50:51;;;;;;;7.07;0.60;;;8.00;99.90;;;;;;5050451;28;20029;-80
2024/02/13 10:53:18;;;;;;;5.00;1.53;;;8.20;99.90;;;;;;5064575;28;20352;-79
2024/02/13 10:55:46;;;;;;;10.10;1.42;;;8.20;99.90;;;;;;5068876;28;20017;-79
2024/02/13 10:58:13;;;;;;;5.90;0.73;;;8.20;99.90;;;;;;5065739;28;20017;-78
2024/02/13 11:00:40;;;;;;;4.30;0.63;;;8.40;99.90;;;;;;5056510;28;20044;-77
2024/02/13 11:03:07;;;;;;;3.03;0.40;;;8.50;99.90;;;;;;5056538;28;20021;-77
2024/02/13 11:05:35;;;;;;;3.42;0.50;;;9.10;99.90;;;;;;5058421;28;20029;-77
2024/02/13 11:08:02;;;;;;;4.43;0.47;;;8.60;99.90;;;;;;5057247;28;20420;-78
2024/02/13 11:10:34;;;;;;;2.38;0.30;;;9.00;99.90;;;;;;5057606;28;20139;-77
2024/02/13 11:13:09;;;;;;;3.95;0.25;;;8.50;99.90;;;;;;5056392;28;20025;-77
2024/02/13 11:15:39;;;;;;;3.05;0.32;;;8.40;99.90;;;;;;5056034;28;20070;-76
2024/02/13 11:18:11;;;;;;;5.22;1.08;;;8.30;99.90;;;;;;5055546;28;20037;-77
2024/02/13 11:20:43;;;;;;;4.07;0.43;;;8.40;99.90;;;;;;5057914;28;20025;-77
2024/02/13 11:23:15;;;;;;;3.42;0.40;;;8.40;99.90;;;;;;5057638;28;20060;-77
2024/02/13 11:25:42;;;;;;;3.95;0.20;;;8.30;99.90;;;;;;5056869;28;20017;-77
2024/02/13 11:28:10;;;;;;;8.23;0.73;;;;;;;;;;5056881;28;20031;-77
2024/02/13 11:30:37;;;;;;;4.43;0.90;;;8.30;99.90;;;;;;5055219;28;20028;-77
2024/02/13 11:33:08;;;;;;;7.45;0.40;;;8.30;99.90;;;;;;5056783;28;20104;-77
2024/02/13 11:35:46;;;;;;;4.25;1.27;;;8.40;99.90;;;;;;5055506;28;20025;-77
2024/02/13 11:38:15;;;;;;;6.55;0.85;;;8.60;99.90;;;;;;5056345;28;20032;-78
2024/02/13 11:40:42;;;;;;;3.42;0.57;;;8.60;99.90;;;;;;5056668;28;20472;-77
2024/02/13 11:43:27;;;;;;;3.10;0.30;;;9.60;99.90;;;;;;5056822;28;20020;-78
2024/02/13 11:45:54;;;;;;;4.65;0.40;;;8.80;99.90;;;;;;5056790;28;20025;-78
2024/02/13 11:48:25;;;;;;;13.25;1.10;;;8.80;99.90;;;;;;5055491;28;20017;-78
2024/02/13 11:50:57;;;;;;;3.45;0.47;;;8.90;99.90;;;;;;5055906;28;20086;-78
2024/02/13 11:53:24;;;;;;;4.40;0.20;;;9.00;99.90;;;;;;5057063;28;20035;-77
2024/02/13 11:55:51;;;;;;;4.13;0.30;;;9.20;99.90;;;;;;5055806;28;20021;-77
2024/02/13 11:58:21;;;;;;;2.13;0.50;;;9.30;99.90;;;;;;5055612;28;20396;-78
2024/02/13 12:00:57;;;;;;;3.88;0.10;;;9.30;99.90;;;;;;5057116;28;20021;-78
2024/02/13 12:03:22;;;;;;;6.03;1.20;;;9.50;99.90;;;;;;5056005;28;20428;-78
2024/02/13 12:05:48;;;;;;;6.07;0.40;;;9.60;99.90;;;;;;5057181;28;20017;-78
2024/02/13 12:08:15;;;;;;;3.47;0.75;;;9.70;99.90;;;;;;5056972;28;20110;-78
2024/02/13 12:10:41;;;;;;;3.28;0.13;;;9.70;99.90;;;;;;5056841;28;20023;-78
2024/02/13 12:13:08;;;;;;;2.75;0.40;;;9.80;99.90;;;;;;5055564;28;20038;-78
2024/02/13 12:15:35;;;;;;;2.05;0.55;;;9.80;99.90;;;;;;5056175;28;20032;-77
2024/02/13 12:18:03;;;;;;;7.32;0.68;;;9.80;99.90;;;;;;5056151;28;20029;-78
2024/02/13 12:20:29;;;;;;;3.78;0.40;;;9.70;99.90;;;;;;5056372;28;20013;-77
2024/02/13 12:23:05;;;;;;;6.47;0.13;;;9.70;99.90;;;;;;5056903;28;20059;-78
2024/02/13 12:25:32;;;;;;;4.05;0.20;;;9.80;99.90;;;;;;5054909;28;20021;-78
2024/02/13 12:28:01;;;;;;;4.32;0.30;;;9.70;99.90;;;;;;5056384;28;20070;-78
2024/02/13 12:30:27;;;;;;;4.97;0.68;;;9.80;99.90;;;;;;5056543;28;20104;-78
2024/02/13 12:32:52;;;;;;;4.13;0.60;;;9.80;99.90;;;;;;5055941;28;20049;-79
2024/02/13 12:35:32;;;;;;;7.68;0.22;;;9.90;99.90;;;;;;5058395;28;20429;-79
2024/02/13 12:38:12;;;;;;;5.88;0.55;;;10.00;99.90;;;;;;5056339;28;20021;-79
2024/02/13 12:40:38;;;;;;;6.15;0.30;;;10.00;99.90;;;;;;5057681;28;20364;-79
2024/02/13 12:43:04;;;;;;;2.40;0.50;;;10.00;99.90;;;;;;5057328;28;20100;-79
2024/02/13 12:45:38;;;;;;;1.13;0.10;;;10.00;99.90;;;;;;5057120;28;20107;-78
2024/02/13 12:48:05;;;;;;;2.38;0.00;;;10.00;99.90;;;;;;5058559;28;20390;-78
2024/02/13 12:50:30;;;;;;;4.50;0.30;;;10.00;99.90;;;;;;5058203;28;20480;-79
2024/02/13 12:52:56;;;;;;;7.20;0.20;;;9.80;99.90;;;;;;5056322;28;20075;-79
2024/02/13 12:55:25;;;;;;;2.65;0.20;;;9.80;99.90;;;;;;5057942;28;20025;-79
2024/02/13 12:57:51;;;;;;;3.60;0.25;;;9.90;99.90;;;;;;5055900;28;20039;-79
2024/02/13 13:00:17;;;;;;;5.15;0.32;;;9.80;99.90;;;;;;5058447;28;20025;-79